sensor_id;sensor_type;location;lat;lon;timestamp;temperature;humidity
21121;DHT22;12519;43.318;21.898;2022-12-07T00:02:03;11.4;100.0
21121;DHT22;12519;43.318;21.898;2022-12-07T00:06:42;11.4;100.0
21121;DHT22;12519;43.318;21.898;2022-12-07T00:11:23;11.4;100.0
21121;DHT22;12519;43.318;21.898;2022-12-07T00:16:02;11.4;100.0
21121;DHT22;12519;43.318;21.898;2022-12-07T00:20:41;11.4;100.0
21121;DHT22;12519;43.318;21.898;2022-12-07T00:25:17;11.4;100.0
21121;DHT22;12519;43.318;21.898;2022-12-07T00:29:53;11.5;100.0
21121;DHT22;12519;43.318;21.898;2022-12-07T00:34:29;11.5;100.0
21121;DHT22;12519;43.318;21.898;2022-12-07T00:39:05;11.6;100.0
21121;DHT22;12519;43.318;21.898;2022-12-07T00:43:45;11.6;100.0
21121;DHT22;12519;43.318;21.898;2022-12-07T00:48:24;11.6;100.0
21121;DHT22;12519;43.318;21.898;2022-12-07T00:53:00;11.6;100.0
21121;DHT22;12519;43.318;21.898;2022-12-07T00:57:36;11.6;100.0
21121;DHT22;12519;43.318;21.898;2022-12-07T01:02:12;11.6;100.0
21121;DHT22;12519;43.318;21.898;2022-12-07T01:06:48;11.6;100.0
21121;DHT22;12519;43.318;21.898;2022-12-07T01:11:29;11.6;100.0
21121;DHT22;12519;43.318;21.898;2022-12-07T01:16:10;11.6;100.0
21121;DHT22;12519;43.318;21.898;2022-12-07T01:20:59;11.4;100.0
21121;DHT22;12519;43.318;21.898;2022-12-07T01:25:41;11.4;100.0
21121;DHT22;12519;43.318;21.898;2022-12-07T01:30:18;11.3;100.0
21121;DHT22;12519;43.318;21.898;2022-12-07T01:34:54;11.3;100.0
21121;DHT22;12519;43.318;21.898;2022-12-07T01:39:30;11.3;100.0
21121;DHT22;12519;43.318;21.898;2022-12-07T01:44:20;11.3;100.0
21121;DHT22;12519;43.318;21.898;2022-12-07T01:49:00;11.3;100.0
21121;DHT22;12519;43.318;21.898;2022-12-07T01:53:42;11.3;100.0
21121;DHT22;12519;43.318;21.898;2022-12-07T01:58:20;11.4;100.0
21121;DHT22;12519;43.318;21.898;2022-12-07T02:03:05;11.4;100.0
21121;DHT22;12519;43.318;21.898;2022-12-07T02:07:42;11.5;100.0
21121;DHT22;12519;43.318;21.898;2022-12-07T02:12:20;11.5;100.0
21121;DHT22;12519;43.318;21.898;2022-12-07T02:17:11;11.4;100.0
21121;DHT22;12519;43.318;21.898;2022-12-07T02:22:29;11.4;100.0
21121;DHT22;12519;43.318;21.898;2022-12-07T02:27:46;11.4;100.0
21121;DHT22;12519;43.318;21.898;2022-12-07T02:32:44;11.4;100.0
21121;DHT22;12519;43.318;21.898;2022-12-07T02:37:43;11.4;100.0
21121;DHT22;12519;43.318;21.898;2022-12-07T02:42:42;11.4;100.0
21121;DHT22;12519;43.318;21.898;2022-12-07T02:47:29;11.5;100.0
21121;DHT22;12519;43.318;21.898;2022-12-07T02:52:09;11.5;100.0
21121;DHT22;12519;43.318;21.898;2022-12-07T02:56:53;11.5;100.0
21121;DHT22;12519;43.318;21.898;2022-12-07T03:01:57;11.5;100.0
21121;DHT22;12519;43.318;21.898;2022-12-07T03:07:00;11.5;100.0
21121;DHT22;12519;43.318;21.898;2022-12-07T03:11:55;11.5;100.0
21121;DHT22;12519;43.318;21.898;2022-12-07T03:16:55;11.4;100.0
21121;DHT22;12519;43.318;21.898;2022-12-07T03:21:44;11.4;100.0
21121;DHT22;12519;43.318;21.898;2022-12-07T03:26:36;11.4;100.0
21121;DHT22;12519;43.318;21.898;2022-12-07T03:31:24;11.4;100.0
21121;DHT22;12519;43.318;21.898;2022-12-07T03:36:19;11.4;100.0
21121;DHT22;12519;43.318;21.898;2022-12-07T03:41:12;11.8;100.0
21121;DHT22;12519;43.318;21.898;2022-12-07T03:46:17;11.8;100.0
21121;DHT22;12519;43.318;21.898;2022-12-07T03:51:23;12.1;100.0
21121;DHT22;12519;43.318;21.898;2022-12-07T03:56:20;12.1;100.0
21121;DHT22;12519;43.318;21.898;2022-12-07T04:00:59;12.1;100.0
21121;DHT22;12519;43.318;21.898;2022-12-07T04:05:39;12.1;100.0
21121;DHT22;12519;43.318;21.898;2022-12-07T04:10:18;12.2;100.0
21121;DHT22;12519;43.318;21.898;2022-12-07T04:14:55;12.2;100.0
21121;DHT22;12519;43.318;21.898;2022-12-07T04:19:34;11.9;100.0
21121;DHT22;12519;43.318;21.898;2022-12-07T04:24:13;11.9;100.0
21121;DHT22;12519;43.318;21.898;2022-12-07T04:28:51;11.6;100.0
21121;DHT22;12519;43.318;21.898;2022-12-07T04:33:27;11.6;100.0
21121;DHT22;12519;43.318;21.898;2022-12-07T04:38:02;11.6;100.0
21121;DHT22;12519;43.318;21.898;2022-12-07T04:42:38;11.6;100.0
21121;DHT22;12519;43.318;21.898;2022-12-07T04:47:14;11.5;100.0
21121;DHT22;12519;43.318;21.898;2022-12-07T04:51:51;11.5;100.0
21121;DHT22;12519;43.318;21.898;2022-12-07T04:56:27;11.5;100.0
21121;DHT22;12519;43.318;21.898;2022-12-07T05:01:03;11.4;100.0
21121;DHT22;12519;43.318;21.898;2022-12-07T05:05:40;11.4;100.0
21121;DHT22;12519;43.318;21.898;2022-12-07T05:10:17;11.4;100.0
21121;DHT22;12519;43.318;21.898;2022-12-07T05:14:53;11.4;100.0
21121;DHT22;12519;43.318;21.898;2022-12-07T05:19:29;12.0;100.0
21121;DHT22;12519;43.318;21.898;2022-12-07T05:24:10;12.0;100.0
21121;DHT22;12519;43.318;21.898;2022-12-07T05:28:51;12.6;99.0
21121;DHT22;12519;43.318;21.898;2022-12-07T05:33:27;12.6;99.0
21121;DHT22;12519;43.318;21.898;2022-12-07T05:38:03;12.6;99.0
21121;DHT22;12519;43.318;21.898;2022-12-07T05:42:40;12.6;99.0
21121;DHT22;12519;43.318;21.898;2022-12-07T05:47:18;12.6;99.0
21121;DHT22;12519;43.318;21.898;2022-12-07T05:51:54;12.6;99.0
21121;DHT22;12519;43.318;21.898;2022-12-07T05:56:30;12.6;99.0
21121;DHT22;12519;43.318;21.898;2022-12-07T06:01:06;12.1;99.0
21121;DHT22;12519;43.318;21.898;2022-12-07T06:05:42;12.1;99.0
21121;DHT22;12519;43.318;21.898;2022-12-07T06:10:18;11.7;100.0
21121;DHT22;12519;43.318;21.898;2022-12-07T06:14:55;11.7;100.0
21121;DHT22;12519;43.318;21.898;2022-12-07T06:19:31;11.6;100.0
21121;DHT22;12519;43.318;21.898;2022-12-07T06:24:10;11.6;100.0
21121;DHT22;12519;43.318;21.898;2022-12-07T06:28:48;11.6;100.0
21121;DHT22;12519;43.318;21.898;2022-12-07T06:33:25;11.6;100.0
21121;DHT22;12519;43.318;21.898;2022-12-07T06:38:02;11.5;100.0
21121;DHT22;12519;43.318;21.898;2022-12-07T06:42:38;11.5;100.0
21121;DHT22;12519;43.318;21.898;2022-12-07T06:47:14;11.4;100.0
21121;DHT22;12519;43.318;21.898;2022-12-07T06:51:50;11.4;100.0
21121;DHT22;12519;43.318;21.898;2022-12-07T06:56:26;11.4;100.0
21121;DHT22;12519;43.318;21.898;2022-12-07T07:01:02;11.4;100.0
21121;DHT22;12519;43.318;21.898;2022-12-07T07:05:44;11.4;100.0
21121;DHT22;12519;43.318;21.898;2022-12-07T07:10:19;11.3;100.0
21121;DHT22;12519;43.318;21.898;2022-12-07T07:14:55;11.3;100.0
21121;DHT22;12519;43.318;21.898;2022-12-07T07:19:31;11.3;100.0
21121;DHT22;12519;43.318;21.898;2022-12-07T07:24:07;11.3;100.0
21121;DHT22;12519;43.318;21.898;2022-12-07T07:28:43;11.3;100.0
21121;DHT22;12519;43.318;21.898;2022-12-07T07:33:19;11.3;100.0
21121;DHT22;12519;43.318;21.898;2022-12-07T07:37:55;12.4;99.0
21121;DHT22;12519;43.318;21.898;2022-12-07T07:42:31;12.4;99.0
21121;DHT22;12519;43.318;21.898;2022-12-07T07:47:07;12.4;99.0
21121;DHT22;12519;43.318;21.898;2022-12-07T07:51:43;13.4;98.0
21121;DHT22;12519;43.318;21.898;2022-12-07T07:56:19;13.4;98.0
21121;DHT22;12519;43.318;21.898;2022-12-07T08:00:55;13.0;98.0
21121;DHT22;12519;43.318;21.898;2022-12-07T08:05:31;13.0;98.0
21121;DHT22;12519;43.318;21.898;2022-12-07T08:10:12;12.6;98.0
21121;DHT22;12519;43.318;21.898;2022-12-07T08:14:49;12.6;98.0
21121;DHT22;12519;43.318;21.898;2022-12-07T08:19:26;12.4;99.0
21121;DHT22;12519;43.318;21.898;2022-12-07T08:24:02;12.4;99.0
21121;DHT22;12519;43.318;21.898;2022-12-07T08:28:39;12.3;100.0
21121;DHT22;12519;43.318;21.898;2022-12-07T08:33:16;12.3;100.0
21121;DHT22;12519;43.318;21.898;2022-12-07T08:37:52;12.4;99.0
21121;DHT22;12519;43.318;21.898;2022-12-07T08:42:28;12.4;99.0
21121;DHT22;12519;43.318;21.898;2022-12-07T08:47:07;12.4;99.0
21121;DHT22;12519;43.318;21.898;2022-12-07T08:51:46;12.6;99.0
21121;DHT22;12519;43.318;21.898;2022-12-07T08:56:24;12.6;99.0
21121;DHT22;12519;43.318;21.898;2022-12-07T09:01:01;12.8;98.0
21121;DHT22;12519;43.318;21.898;2022-12-07T09:05:40;12.8;98.0
21121;DHT22;12519;43.318;21.898;2022-12-07T09:10:17;13.1;98.0
21121;DHT22;12519;43.318;21.898;2022-12-07T09:14:54;13.1;98.0
21121;DHT22;12519;43.318;21.898;2022-12-07T09:19:31;13.2;97.0
21121;DHT22;12519;43.318;21.898;2022-12-07T09:24:07;13.2;97.0
21121;DHT22;12519;43.318;21.898;2022-12-07T09:28:44;13.2;97.0
21121;DHT22;12519;43.318;21.898;2022-12-07T09:33:20;13.2;97.0
21121;DHT22;12519;43.318;21.898;2022-12-07T09:37:56;13.2;97.0
21121;DHT22;12519;43.318;21.898;2022-12-07T09:42:37;13.2;97.0
21121;DHT22;12519;43.318;21.898;2022-12-07T09:47:15;13.2;97.0
21121;DHT22;12519;43.318;21.898;2022-12-07T09:52:03;13.2;97.0
21121;DHT22;12519;43.318;21.898;2022-12-07T09:56:51;13.2;97.0
21121;DHT22;12519;43.318;21.898;2022-12-07T10:01:31;13.3;97.0
21121;DHT22;12519;43.318;21.898;2022-12-07T10:06:11;13.3;97.0
21121;DHT22;12519;43.318;21.898;2022-12-07T10:10:53;13.4;97.0
21121;DHT22;12519;43.318;21.898;2022-12-07T10:15:51;13.4;97.0
21121;DHT22;12519;43.318;21.898;2022-12-07T10:20:27;13.7;96.0
21121;DHT22;12519;43.318;21.898;2022-12-07T10:25:18;13.7;96.0
21121;DHT22;12519;43.318;21.898;2022-12-07T10:29:58;14.0;96.0
21121;DHT22;12519;43.318;21.898;2022-12-07T10:34:37;14.0;96.0
21121;DHT22;12519;43.318;21.898;2022-12-07T10:39:19;14.0;95.0
21121;DHT22;12519;43.318;21.898;2022-12-07T10:43:58;14.0;95.0
21121;DHT22;12519;43.318;21.898;2022-12-07T10:48:48;14.1;95.0
21121;DHT22;12519;43.318;21.898;2022-12-07T10:53:57;14.1;95.0
21121;DHT22;12519;43.318;21.898;2022-12-07T10:59:21;14.2;94.0
21121;DHT22;12519;43.318;21.898;2022-12-07T11:04:33;14.2;94.0
21121;DHT22;12519;43.318;21.898;2022-12-07T11:09:49;14.4;93.0
21121;DHT22;12519;43.318;21.898;2022-12-07T11:14:39;14.4;93.0
21121;DHT22;12519;43.318;21.898;2022-12-07T11:19:42;14.6;91.0
21121;DHT22;12519;43.318;21.898;2022-12-07T11:24:31;14.6;91.0
21121;DHT22;12519;43.318;21.898;2022-12-07T11:30:03;14.7;90.0
21121;DHT22;12519;43.318;21.898;2022-12-07T11:35:07;14.7;90.0
21121;DHT22;12519;43.318;21.898;2022-12-07T11:39:58;14.6;89.0
21121;DHT22;12519;43.318;21.898;2022-12-07T11:44:56;14.6;89.0
21121;DHT22;12519;43.318;21.898;2022-12-07T11:50:01;14.6;89.0
21121;DHT22;12519;43.318;21.898;2022-12-07T11:55:19;14.6;89.0
21121;DHT22;12519;43.318;21.898;2022-12-07T12:00:14;14.8;88.0
21121;DHT22;12519;43.318;21.898;2022-12-07T12:05:03;14.8;88.0
21121;DHT22;12519;43.318;21.898;2022-12-07T12:09:58;15.1;88.0
21121;DHT22;12519;43.318;21.898;2022-12-07T12:14:59;15.1;88.0
21121;DHT22;12519;43.318;21.898;2022-12-07T12:20:05;15.2;87.0
21121;DHT22;12519;43.318;21.898;2022-12-07T12:24:56;15.2;87.0
21121;DHT22;12519;43.318;21.898;2022-12-07T12:29:37;15.3;87.0
21121;DHT22;12519;43.318;21.898;2022-12-07T12:34:39;15.3;87.0
21121;DHT22;12519;43.318;21.898;2022-12-07T12:39:18;15.4;86.0
21121;DHT22;12519;43.318;21.898;2022-12-07T12:43:54;15.4;86.0
21121;DHT22;12519;43.318;21.898;2022-12-07T12:48:37;15.4;86.0
21121;DHT22;12519;43.318;21.898;2022-12-07T12:53:22;15.4;86.0
21121;DHT22;12519;43.318;21.898;2022-12-07T12:58:37;15.2;87.0
21121;DHT22;12519;43.318;21.898;2022-12-07T13:03:27;15.2;87.0
21121;DHT22;12519;43.318;21.898;2022-12-07T13:08:20;15.1;87.0
21121;DHT22;12519;43.318;21.898;2022-12-07T13:13:28;15.1;87.0
21121;DHT22;12519;43.318;21.898;2022-12-07T13:18:36;15.1;88.0
21121;DHT22;12519;43.318;21.898;2022-12-07T13:23:20;15.1;88.0
21121;DHT22;12519;43.318;21.898;2022-12-07T13:28:15;15.1;88.0
21121;DHT22;12519;43.318;21.898;2022-12-07T13:32:58;15.1;88.0
21121;DHT22;12519;43.318;21.898;2022-12-07T13:37:35;15.1;88.0
21121;DHT22;12519;43.318;21.898;2022-12-07T13:42:28;15.7;88.0
21121;DHT22;12519;43.318;21.898;2022-12-07T13:47:17;15.7;88.0
21121;DHT22;12519;43.318;21.898;2022-12-07T13:52:17;16.3;87.0
21121;DHT22;12519;43.318;21.898;2022-12-07T13:56:56;16.3;87.0
21121;DHT22;12519;43.318;21.898;2022-12-07T14:01:32;16.0;86.0
21121;DHT22;12519;43.318;21.898;2022-12-07T14:06:25;16.0;86.0
21121;DHT22;12519;43.318;21.898;2022-12-07T14:11:02;15.8;85.0
21121;DHT22;12519;43.318;21.898;2022-12-07T14:15:39;15.8;85.0
21121;DHT22;12519;43.318;21.898;2022-12-07T14:20:32;15.4;86.0
21121;DHT22;12519;43.318;21.898;2022-12-07T14:25:20;15.4;86.0
21121;DHT22;12519;43.318;21.898;2022-12-07T14:30:00;15.1;88.0
21121;DHT22;12519;43.318;21.898;2022-12-07T14:34:37;15.1;88.0
21121;DHT22;12519;43.318;21.898;2022-12-07T14:39:13;14.9;88.0
21121;DHT22;12519;43.318;21.898;2022-12-07T14:43:49;14.9;88.0
21121;DHT22;12519;43.318;21.898;2022-12-07T14:48:25;14.7;89.0
21121;DHT22;12519;43.318;21.898;2022-12-07T14:53:13;14.7;89.0
21121;DHT22;12519;43.318;21.898;2022-12-07T14:57:53;14.7;89.0
21121;DHT22;12519;43.318;21.898;2022-12-07T15:02:30;16.2;87.0
21121;DHT22;12519;43.318;21.898;2022-12-07T15:07:18;16.2;87.0
21121;DHT22;12519;43.318;21.898;2022-12-07T15:11:54;17.7;86.0
21121;DHT22;12519;43.318;21.898;2022-12-07T15:16:30;17.7;86.0
21121;DHT22;12519;43.318;21.898;2022-12-07T15:21:13;16.9;84.0
21121;DHT22;12519;43.318;21.898;2022-12-07T15:25:49;16.9;84.0
21121;DHT22;12519;43.318;21.898;2022-12-07T15:30:25;16.1;83.0
21121;DHT22;12519;43.318;21.898;2022-12-07T15:35:01;16.1;83.0
21121;DHT22;12519;43.318;21.898;2022-12-07T15:39:37;15.3;84.0
21121;DHT22;12519;43.318;21.898;2022-12-07T15:44:14;15.3;84.0
21121;DHT22;12519;43.318;21.898;2022-12-07T15:48:51;14.5;86.0
21121;DHT22;12519;43.318;21.898;2022-12-07T15:53:27;14.5;86.0
21121;DHT22;12519;43.318;21.898;2022-12-07T15:58:03;14.5;86.0
21121;DHT22;12519;43.318;21.898;2022-12-07T16:02:39;14.4;86.0
21121;DHT22;12519;43.318;21.898;2022-12-07T16:07:15;14.4;86.0
21121;DHT22;12519;43.318;21.898;2022-12-07T16:11:52;14.3;87.0
21121;DHT22;12519;43.318;21.898;2022-12-07T16:16:29;14.3;87.0
21121;DHT22;12519;43.318;21.898;2022-12-07T16:21:05;14.3;88.0
21121;DHT22;12519;43.318;21.898;2022-12-07T16:25:41;14.3;88.0
21121;DHT22;12519;43.318;21.898;2022-12-07T16:30:18;14.3;90.0
21121;DHT22;12519;43.318;21.898;2022-12-07T16:34:54;14.3;90.0
21121;DHT22;12519;43.318;21.898;2022-12-07T16:39:30;14.4;89.0
21121;DHT22;12519;43.318;21.898;2022-12-07T16:44:13;14.4;89.0
21121;DHT22;12519;43.318;21.898;2022-12-07T16:48:49;14.5;88.0
21121;DHT22;12519;43.318;21.898;2022-12-07T16:53:25;14.5;88.0
21121;DHT22;12519;43.318;21.898;2022-12-07T16:58:01;14.5;88.0
21121;DHT22;12519;43.318;21.898;2022-12-07T17:02:37;14.4;88.0
21121;DHT22;12519;43.318;21.898;2022-12-07T17:07:14;14.4;88.0
21121;DHT22;12519;43.318;21.898;2022-12-07T17:11:50;14.3;88.0
21121;DHT22;12519;43.318;21.898;2022-12-07T17:16:28;14.3;88.0
21121;DHT22;12519;43.318;21.898;2022-12-07T17:21:08;14.1;89.0
21121;DHT22;12519;43.318;21.898;2022-12-07T17:25:45;14.1;89.0
21121;DHT22;12519;43.318;21.898;2022-12-07T17:30:22;13.9;90.0
21121;DHT22;12519;43.318;21.898;2022-12-07T17:34:59;13.9;90.0
21121;DHT22;12519;43.318;21.898;2022-12-07T17:39:35;13.6;93.0
21121;DHT22;12519;43.318;21.898;2022-12-07T17:44:14;13.6;93.0
21121;DHT22;12519;43.318;21.898;2022-12-07T17:48:53;13.2;95.0
21121;DHT22;12519;43.318;21.898;2022-12-07T17:53:29;13.2;95.0
21121;DHT22;12519;43.318;21.898;2022-12-07T17:58:05;13.2;95.0
21121;DHT22;12519;43.318;21.898;2022-12-07T18:02:41;13.0;96.0
21121;DHT22;12519;43.318;21.898;2022-12-07T18:07:17;13.0;96.0
21121;DHT22;12519;43.318;21.898;2022-12-07T18:11:53;12.8;97.0
21121;DHT22;12519;43.318;21.898;2022-12-07T18:16:32;12.8;97.0
21121;DHT22;12519;43.318;21.898;2022-12-07T18:21:12;12.5;97.0
21121;DHT22;12519;43.318;21.898;2022-12-07T18:25:49;12.5;97.0
21121;DHT22;12519;43.318;21.898;2022-12-07T18:30:25;12.2;98.0
21121;DHT22;12519;43.318;21.898;2022-12-07T18:35:00;12.2;98.0
21121;DHT22;12519;43.318;21.898;2022-12-07T18:39:36;11.8;99.0
21121;DHT22;12519;43.318;21.898;2022-12-07T18:44:13;11.8;99.0
21121;DHT22;12519;43.318;21.898;2022-12-07T18:48:48;11.4;100.0
21121;DHT22;12519;43.318;21.898;2022-12-07T18:53:24;11.4;100.0
21121;DHT22;12519;43.318;21.898;2022-12-07T18:58:01;11.4;100.0
21121;DHT22;12519;43.318;21.898;2022-12-07T19:02:37;11.4;100.0
21121;DHT22;12519;43.318;21.898;2022-12-07T19:07:13;11.4;100.0
21121;DHT22;12519;43.318;21.898;2022-12-07T19:11:49;11.5;99.0
21121;DHT22;12519;43.318;21.898;2022-12-07T19:16:25;11.5;99.0
21121;DHT22;12519;43.318;21.898;2022-12-07T19:21:02;11.6;99.0
21121;DHT22;12519;43.318;21.898;2022-12-07T19:25:39;11.6;99.0
21121;DHT22;12519;43.318;21.898;2022-12-07T19:30:15;11.6;98.0
21121;DHT22;12519;43.318;21.898;2022-12-07T19:34:52;11.6;98.0
21121;DHT22;12519;43.318;21.898;2022-12-07T19:39:28;12.2;98.0
21121;DHT22;12519;43.318;21.898;2022-12-07T19:44:11;12.2;98.0
21121;DHT22;12519;43.318;21.898;2022-12-07T19:48:50;12.8;99.0
21121;DHT22;12519;43.318;21.898;2022-12-07T19:53:26;12.8;99.0
21121;DHT22;12519;43.318;21.898;2022-12-07T19:58:02;12.8;99.0
21121;DHT22;12519;43.318;21.898;2022-12-07T20:02:38;12.4;99.0
21121;DHT22;12519;43.318;21.898;2022-12-07T20:07:14;12.4;99.0
21121;DHT22;12519;43.318;21.898;2022-12-07T20:11:51;12.0;99.0
21121;DHT22;12519;43.318;21.898;2022-12-07T20:16:27;12.0;99.0
21121;DHT22;12519;43.318;21.898;2022-12-07T20:21:04;11.7;99.0
21121;DHT22;12519;43.318;21.898;2022-12-07T20:25:40;11.7;99.0
21121;DHT22;12519;43.318;21.898;2022-12-07T20:30:15;11.4;100.0
21121;DHT22;12519;43.318;21.898;2022-12-07T20:34:51;11.4;100.0
21121;DHT22;12519;43.318;21.898;2022-12-07T20:39:27;11.3;100.0
21121;DHT22;12519;43.318;21.898;2022-12-07T20:44:04;11.3;100.0
21121;DHT22;12519;43.318;21.898;2022-12-07T20:48:40;11.3;100.0
21121;DHT22;12519;43.318;21.898;2022-12-07T20:53:16;11.2;100.0
21121;DHT22;12519;43.318;21.898;2022-12-07T20:57:52;11.2;100.0
21121;DHT22;12519;43.318;21.898;2022-12-07T21:02:28;11.2;100.0
21121;DHT22;12519;43.318;21.898;2022-12-07T21:07:03;11.2;100.0
21121;DHT22;12519;43.318;21.898;2022-12-07T21:11:39;11.2;100.0
21121;DHT22;12519;43.318;21.898;2022-12-07T21:16:20;11.2;100.0
21121;DHT22;12519;43.318;21.898;2022-12-07T21:21:00;10.8;100.0
21121;DHT22;12519;43.318;21.898;2022-12-07T21:25:37;10.8;100.0
21121;DHT22;12519;43.318;21.898;2022-12-07T21:30:13;10.5;100.0
21121;DHT22;12519;43.318;21.898;2022-12-07T21:34:49;10.5;100.0
21121;DHT22;12519;43.318;21.898;2022-12-07T21:39:25;10.2;100.0
21121;DHT22;12519;43.318;21.898;2022-12-07T21:44:07;10.2;100.0
21121;DHT22;12519;43.318;21.898;2022-12-07T21:48:50;10.2;100.0
21121;DHT22;12519;43.318;21.898;2022-12-07T21:53:26;10.0;100.0
21121;DHT22;12519;43.318;21.898;2022-12-07T21:58:02;10.0;100.0
21121;DHT22;12519;43.318;21.898;2022-12-07T22:02:37;10.1;100.0
21121;DHT22;12519;43.318;21.898;2022-12-07T22:07:13;10.1;100.0
21121;DHT22;12519;43.318;21.898;2022-12-07T22:11:50;10.2;100.0
21121;DHT22;12519;43.318;21.898;2022-12-07T22:16:27;10.2;100.0
21121;DHT22;12519;43.318;21.898;2022-12-07T22:21:04;10.1;100.0
21121;DHT22;12519;43.318;21.898;2022-12-07T22:25:40;10.1;100.0
21121;DHT22;12519;43.318;21.898;2022-12-07T22:30:16;10.1;100.0
21121;DHT22;12519;43.318;21.898;2022-12-07T22:34:53;10.1;100.0
21121;DHT22;12519;43.318;21.898;2022-12-07T22:39:29;10.1;100.0
21121;DHT22;12519;43.318;21.898;2022-12-07T22:44:07;10.1;100.0
21121;DHT22;12519;43.318;21.898;2022-12-07T22:48:45;10.1;100.0
21121;DHT22;12519;43.318;21.898;2022-12-07T22:53:23;10.2;100.0
21121;DHT22;12519;43.318;21.898;2022-12-07T22:58:00;10.2;100.0
21121;DHT22;12519;43.318;21.898;2022-12-07T23:02:38;10.4;100.0
21121;DHT22;12519;43.318;21.898;2022-12-07T23:07:14;10.4;100.0
21121;DHT22;12519;43.318;21.898;2022-12-07T23:11:50;10.6;100.0
21121;DHT22;12519;43.318;21.898;2022-12-07T23:16:26;10.6;100.0
21121;DHT22;12519;43.318;21.898;2022-12-07T23:21:02;10.6;100.0
21121;DHT22;12519;43.318;21.898;2022-12-07T23:25:38;10.6;100.0
21121;DHT22;12519;43.318;21.898;2022-12-07T23:30:14;10.6;100.0
21121;DHT22;12519;43.318;21.898;2022-12-07T23:34:50;10.6;100.0
21121;DHT22;12519;43.318;21.898;2022-12-07T23:39:26;10.4;100.0
21121;DHT22;12519;43.318;21.898;2022-12-07T23:44:03;10.4;100.0
21121;DHT22;12519;43.318;21.898;2022-12-07T23:48:40;10.4;100.0
21121;DHT22;12519;43.318;21.898;2022-12-07T23:53:17;10.3;100.0
21121;DHT22;12519;43.318;21.898;2022-12-07T23:57:53;10.3;100.0
